Time;durP1;ratioP1;P1;durP2;ratioP2;P2;SDS_P1;SDS_P2;PMS_P1;PMS_P2;Temp;Humidity;BMP_temperature;BMP_pressure;BME280_temperature;BME280_humidity;BME280_pressure;Samples;Min_cycle;Max_cycle;Signal;HPM_P1;HPM_P2
2022/06/14 00:02:31;;;;;;;1036.70;946.95;;;9.00;80.70;;;;;;4998941;28;20458;-68
2022/06/14 00:04:57;;;;;;;1023.37;931.53;;;8.90;80.30;;;;;;4962342;28;20042;-68
2022/06/14 00:07:23;;;;;;;1045.20;950.87;;;8.90;80.20;;;;;;4972536;28;20119;-68
2022/06/14 00:09:48;;;;;;;1031.80;939.00;;;8.90;80.20;;;;;;4977587;28;20472;-68
2022/06/14 00:12:14;;;;;;;1068.10;972.60;;;8.90;79.90;;;;;;4965412;28;20399;-68
2022/06/14 00:14:40;;;;;;;1004.90;923.13;;;8.90;79.90;;;;;;4984365;28;20515;-68
2022/06/14 00:17:06;;;;;;;1027.85;942.10;;;8.90;79.80;;;;;;4984724;28;20078;-68
2022/06/14 00:19:32;;;;;;;1026.40;939.07;;;8.90;79.70;;;;;;5000702;28;20038;-68
2022/06/14 00:22:01;;;;;;;1057.07;960.47;;;8.80;79.60;;;;;;4987354;28;20126;-68
2022/06/14 00:24:28;;;;;;;1034.07;942.35;;;8.80;80.40;;;;;;4971348;28;20045;-68
2022/06/14 00:26:54;;;;;;;1044.75;952.33;;;8.80;80.20;;;;;;4973033;28;20039;-68
2022/06/14 00:29:19;;;;;;;1085.93;986.03;;;8.80;80.30;;;;;;4982561;28;20105;-68
2022/06/14 00:31:45;;;;;;;1032.37;944.37;;;8.70;80.20;;;;;;4978645;28;20161;-68
2022/06/14 00:34:11;;;;;;;1030.13;944.10;;;8.70;80.10;;;;;;4980997;28;20093;-68
2022/06/14 00:36:36;;;;;;;1062.93;967.37;;;8.70;80.30;;;;;;4985126;28;20034;-68
2022/06/14 00:39:08;;;;;;;1058.30;964.23;;;8.70;80.50;;;;;;4995793;28;20605;-68
2022/06/14 00:41:46;;;;;;;979.33;900.75;;;8.60;80.80;;;;;;4990548;28;20054;-68
2022/06/14 00:44:18;;;;;;;986.97;905.97;;;8.60;80.60;;;;;;4982915;28;20046;-68
2022/06/14 00:46:53;;;;;;;1014.13;930.63;;;8.60;80.70;;;;;;4986523;28;20050;-68
2022/06/14 00:49:35;;;;;;;1042.65;950.53;;;8.60;80.40;;;;;;4986041;28;20046;-68
2022/06/14 00:52:02;;;;;;;1036.57;946.17;;;8.50;80.50;;;;;;4970613;28;20080;-68
2022/06/14 00:54:36;;;;;;;1045.22;954.25;;;8.50;81.10;;;;;;4985770;28;20188;-68
2022/06/14 00:57:22;;;;;;;1065.35;971.85;;;8.40;82.00;;;;;;4991163;28;20070;-68
2022/06/14 01:00:04;;;;;;;1046.32;956.33;;;8.40;82.20;;;;;;4975592;28;20113;-67
2022/06/14 01:02:35;;;;;;;1027.38;940.42;;;8.40;81.90;;;;;;4977546;28;20490;-68
2022/06/14 01:05:05;;;;;;;1041.60;948.45;;;8.40;81.80;;;;;;4980224;28;20056;-68
2022/06/14 01:07:41;;;;;;;996.08;916.30;;;8.30;81.80;;;;;;4986065;28;20077;-67
2022/06/14 01:10:15;;;;;;;1022.03;934.85;;;8.30;81.50;;;;;;4985083;28;20460;-67
2022/06/14 01:12:45;;;;;;;1009.42;922.50;;;8.30;81.50;;;;;;4986321;28;20061;-67
2022/06/14 01:15:26;;;;;;;1002.45;918.22;;;8.30;81.90;;;;;;4985777;28;20046;-67
2022/06/14 01:17:58;;;;;;;1016.70;928.80;;;8.30;81.60;;;;;;4981533;28;20313;-67
2022/06/14 01:20:25;;;;;;;999.95;916.97;;;8.30;81.60;;;;;;4981791;28;20235;-68
2022/06/14 01:22:52;;;;;;;1040.93;948.30;;;8.30;81.40;;;;;;4982736;28;20054;-68
2022/06/14 01:25:18;;;;;;;1014.60;927.45;;;8.30;82.20;;;;;;4979805;28;20042;-68
2022/06/14 01:27:45;;;;;;;1056.25;964.92;;;8.30;82.10;;;;;;4985201;28;20205;-68
2022/06/14 01:30:15;;;;;;;1000.65;915.30;;;8.30;82.10;;;;;;4986200;28;20046;-68
2022/06/14 01:33:08;;;;;;;925.40;856.15;;;8.20;82.00;;;;;;4999272;28;20045;-68
2022/06/14 01:35:36;;;;;;;899.80;833.20;;;8.20;81.80;;;;;;4980834;28;20121;-68
2022/06/14 01:38:11;;;;;;;953.05;879.35;;;8.30;81.90;;;;;;4977654;28;20471;-68
2022/06/14 01:40:50;;;;;;;917.83;847.90;;;8.20;81.90;;;;;;4987509;28;20042;-68
2022/06/14 01:43:36;;;;;;;943.28;872.60;;;8.20;81.90;;;;;;4980618;28;20491;-68
2022/06/14 01:46:01;;;;;;;927.63;856.60;;;8.20;82.00;;;;;;4976221;28;20046;-68
2022/06/14 01:48:37;;;;;;;964.87;889.13;;;8.20;82.00;;;;;;4978001;28;20073;-68
2022/06/14 01:54:22;;;;;;;955.60;876.75;;;8.30;82.50;;;;;;4995394;28;20042;-68
2022/06/14 01:56:50;;;;;;;944.53;871.22;;;8.30;82.50;;;;;;4976231;28;20047;-68
2022/06/14 01:59:53;;;;;;;984.47;904.15;;;8.30;82.40;;;;;;4980185;28;20100;-68
2022/06/14 02:02:28;;;;;;;966.20;890.40;;;8.30;82.30;;;;;;4970145;28;20067;-68
2022/06/14 02:05:00;;;;;;;1003.17;922.28;;;8.30;82.30;;;;;;4974067;28;20047;-68
2022/06/14 02:07:32;;;;;;;991.13;911.00;;;8.30;82.20;;;;;;4982918;28;20055;-68
2022/06/14 02:10:29;;;;;;;961.67;884.38;;;8.30;82.10;;;;;;4974466;28;20038;-68
2022/06/14 02:13:05;;;;;;;970.22;896.13;;;8.30;81.90;;;;;;4923638;28;20050;-68
2022/06/14 02:15:34;;;;;;;957.03;882.13;;;8.30;82.00;;;;;;4988715;28;20065;-68
2022/06/14 02:18:28;;;;;;;927.97;859.97;;;8.30;81.70;;;;;;4973119;28;20050;-67
2022/06/14 02:21:05;;;;;;;918.95;847.90;;;8.30;81.80;;;;;;4979806;28;20489;-68
2022/06/14 02:23:37;;;;;;;961.67;884.60;;;8.40;81.60;;;;;;4999970;28;20034;-68
2022/06/14 02:26:29;;;;;;;972.50;897.70;;;8.40;81.60;;;;;;4976159;28;20038;-68
2022/06/14 02:29:21;;;;;;;910.20;840.60;;;8.30;81.80;;;;;;4976519;28;20054;-68
2022/06/14 02:31:54;;;;;;;980.08;901.00;;;8.30;81.90;;;;;;4995334;28;20082;-68
2022/06/14 02:34:44;;;;;;;946.35;870.67;;;8.30;81.80;;;;;;4967363;28;20122;-68
2022/06/14 02:37:17;;;;;;;947.72;871.17;;;8.30;81.80;;;;;;4979308;28;20043;-68
2022/06/14 02:39:52;;;;;;;930.30;855.70;;;8.30;81.80;;;;;;4969854;28;20523;-68
2022/06/14 02:42:27;;;;;;;929.10;854.03;;;8.30;81.70;;;;;;4998343;28;20094;-68
2022/06/14 02:45:22;;;;;;;893.55;822.70;;;8.30;81.60;;;;;;4979786;28;20050;-67
2022/06/14 02:48:01;;;;;;;871.67;804.13;;;8.30;81.60;;;;;;4981168;28;20410;-68
2022/06/14 02:50:41;;;;;;;973.70;890.97;;;8.30;81.50;;;;;;4961092;28;20061;-67
2022/06/14 02:53:14;;;;;;;934.50;861.72;;;8.30;81.80;;;;;;4987813;28;20046;-67
2022/06/14 02:55:58;;;;;;;987.33;905.50;;;8.30;82.20;;;;;;4985649;28;20030;-67
2022/06/14 02:58:30;;;;;;;928.85;855.72;;;8.30;82.00;;;;;;4970801;28;20046;-68
2022/06/14 03:01:11;;;;;;;939.55;865.35;;;8.30;82.00;;;;;;4976262;28;20455;-68
2022/06/14 03:03:57;;;;;;;941.22;869.55;;;8.30;81.90;;;;;;4980284;28;20083;-68
2022/06/14 03:06:51;;;;;;;932.50;859.47;;;8.30;81.90;;;;;;4972936;28;20050;-68
2022/06/14 03:09:23;;;;;;;940.67;867.20;;;8.30;81.80;;;;;;4992645;28;20038;-67
2022/06/14 03:12:32;;;;;;;912.17;840.30;;;8.30;81.90;;;;;;4981754;28;20042;-68
2022/06/14 03:15:07;;;;;;;929.15;856.80;;;8.30;81.80;;;;;;4982337;28;20487;-68
2022/06/14 03:17:58;;;;;;;962.13;884.35;;;8.30;81.80;;;;;;4970900;28;20046;-66
2022/06/14 03:20:52;;;;;;;868.75;803.90;;;8.30;81.70;;;;;;4988215;28;20102;-66
2022/06/14 03:23:32;;;;;;;926.55;852.72;;;8.30;81.80;;;;;;4986056;28;20050;-66
2022/06/14 03:26:19;;;;;;;964.03;885.03;;;8.40;81.80;;;;;;4982040;28;20096;-67
2022/06/14 03:28:55;;;;;;;986.05;905.60;;;8.40;82.00;;;;;;4973140;28;20133;-67
2022/06/14 03:31:35;;;;;;;1033.43;941.92;;;8.40;82.00;;;;;;4975127;28;20049;-66
2022/06/14 03:34:25;;;;;;;1037.60;944.55;;;8.50;82.00;;;;;;4981680;28;20053;-67
2022/06/14 03:36:52;;;;;;;1083.03;982.28;;;8.50;82.10;;;;;;4993171;28;20101;-67
2022/06/14 03:39:24;;;;;;;1075.28;973.38;;;8.50;82.10;;;;;;4980789;28;20082;-67
2022/06/14 03:41:53;;;;;;;1087.13;987.83;;;8.60;82.20;;;;;;4985090;28;20089;-67
2022/06/14 03:44:21;;;;;;;1036.05;943.88;;;8.70;82.20;;;;;;4985959;28;20038;-67
2022/06/14 03:47:09;;;;;;;1006.95;916.85;;;8.70;82.20;;;;;;4971468;28;20347;-67
2022/06/14 03:49:41;;;;;;;1014.92;923.10;;;8.80;82.10;;;;;;4971344;28;20052;-67
2022/06/14 03:52:41;;;;;;;1047.20;957.22;;;8.80;82.20;;;;;;4972404;28;20043;-67
2022/06/14 03:55:26;;;;;;;962.83;884.90;;;8.80;82.20;;;;;;4981637;28;20065;-67
2022/06/14 03:58:02;;;;;;;961.20;884.35;;;8.90;82.20;;;;;;4997588;28;20427;-67
2022/06/14 04:00:37;;;;;;;1003.58;917.90;;;8.90;82.10;;;;;;4997441;28;20124;-67
2022/06/14 04:03:03;;;;;;;1015.55;928.10;;;9.00;82.10;;;;;;4983937;28;20157;-67
2022/06/14 04:05:32;;;;;;;983.27;898.53;;;9.00;82.00;;;;;;4983922;28;20152;-67
2022/06/14 04:08:32;;;;;;;1020.05;931.78;;;9.10;82.10;;;;;;4987177;28;20049;-67
2022/06/14 04:11:08;;;;;;;1015.47;930.00;;;9.20;82.10;;;;;;4980944;28;20050;-67
2022/06/14 04:14:12;;;;;;;1049.97;959.97;;;9.30;82.60;;;;;;4974543;28;20043;-67
2022/06/14 04:16:43;;;;;;;1049.45;958.58;;;9.40;82.30;;;;;;4983299;28;20395;-67
2022/06/14 04:19:24;;;;;;;1033.22;945.95;;;9.50;82.30;;;;;;4984820;28;20050;-67
2022/06/14 04:22:04;;;;;;;980.53;895.95;;;9.60;82.00;;;;;;4984187;28;20053;-67
2022/06/14 04:24:39;;;;;;;997.67;908.75;;;9.70;82.10;;;;;;4982109;28;20535;-67
2022/06/14 04:27:19;;;;;;;1032.93;944.33;;;9.90;82.20;;;;;;4980481;28;20428;-67
2022/06/14 04:30:10;;;;;;;1000.30;911.78;;;10.00;81.90;;;;;;4972037;28;20528;-67
2022/06/14 04:32:43;;;;;;;1015.67;921.75;;;10.20;82.00;;;;;;4970780;28;20046;-67
2022/06/14 04:35:18;;;;;;;1060.68;959.97;;;10.40;82.60;;;;;;4971649;28;20431;-67
2022/06/14 04:38:00;;;;;;;1132.20;999.90;;;11.10;82.70;;;;;;4981937;28;20060;-67
2022/06/14 04:40:33;;;;;;;1108.90;993.08;;;12.10;81.50;;;;;;4984114;28;20407;-67
2022/06/14 04:43:04;;;;;;;1145.10;999.90;;;13.10;79.10;;;;;;4986132;28;20050;-67
2022/06/14 04:45:43;;;;;;;1186.25;999.90;;;14.10;76.70;;;;;;4980621;28;20128;-67
2022/06/14 04:48:36;;;;;;;1187.80;999.90;;;14.90;74.40;;;;;;4996930;28;20051;-67
2022/06/14 04:51:07;;;;;;;1113.25;992.50;;;15.50;72.40;;;;;;4974714;28;20057;-67
2022/06/14 04:53:42;;;;;;;1202.00;999.90;;;16.00;70.30;;;;;;4970065;28;20593;-67
2022/06/14 04:56:20;;;;;;;1210.93;999.90;;;16.00;69.10;;;;;;4987605;28;20834;-67
2022/06/14 04:59:13;;;;;;;1167.87;999.90;;;16.10;69.10;;;;;;4985353;28;20045;-67
2022/06/14 05:02:02;;;;;;;1208.80;999.90;;;16.50;67.90;;;;;;4984707;28;20342;-67
2022/06/14 05:04:36;;;;;;;1240.63;999.90;;;16.90;67.30;;;;;;4995565;28;20849;-67
2022/06/14 05:07:18;;;;;;;1246.32;999.90;;;17.10;66.30;;;;;;4986948;28;20637;-67
2022/06/14 05:10:07;;;;;;;1297.50;999.90;;;17.30;64.90;;;;;;4975147;28;20042;-67
2022/06/14 05:13:02;;;;;;;1266.33;999.90;;;17.50;64.60;;;;;;4968893;28;20621;-67
2022/06/14 05:15:32;;;;;;;1331.17;999.90;;;17.80;64.40;;;;;;4970317;28;20348;-67
2022/06/14 05:18:07;;;;;;;1296.83;999.90;;;18.10;63.90;;;;;;4979461;28;20337;-67
2022/06/14 05:20:33;;;;;;;;;;;18.20;62.10;;;;;;4983412;28;20762;-67
2022/06/14 05:23:11;;;;;;;1260.00;999.90;;;18.40;60.10;;;;;;4996698;28;19949;-67
2022/06/14 05:25:46;;;;;;;1251.37;999.90;;;18.50;61.80;;;;;;4976845;28;20509;-67
2022/06/14 05:28:15;;;;;;;1286.88;999.90;;;18.80;61.10;;;;;;4980519;28;20297;-67
2022/06/14 05:30:46;;;;;;;1287.10;999.90;;;19.00;60.60;;;;;;4975767;28;20096;-67
2022/06/14 05:33:37;;;;;;;1258.83;999.90;;;19.20;60.10;;;;;;4973668;28;20303;-68
2022/06/14 05:36:11;;;;;;;1348.60;999.90;;;19.50;59.10;;;;;;4976178;28;20308;-68
2022/06/14 05:38:54;;;;;;;1319.07;999.90;;;19.70;58.90;;;;;;4961854;28;20654;-68
2022/06/14 05:41:40;;;;;;;1335.60;999.90;;;19.90;58.30;;;;;;4957912;28;20296;-68
2022/06/14 05:44:37;;;;;;;1248.70;999.90;;;20.10;57.80;;;;;;4971638;28;20344;-68
2022/06/14 05:47:21;;;;;;;1258.57;999.90;;;20.60;56.00;;;;;;4978422;28;20833;-68
2022/06/14 05:49:59;;;;;;;1153.70;999.90;;;20.60;56.00;;;;;;4971157;28;20306;-68
2022/06/14 05:52:36;;;;;;;1171.43;999.90;;;20.70;54.60;;;;;;4973620;28;20301;-68
2022/06/14 05:55:18;;;;;;;1153.53;999.90;;;20.90;54.80;;;;;;4970045;28;20373;-68
2022/06/14 05:58:00;;;;;;;1172.90;999.90;;;21.10;54.00;;;;;;4956518;28;20301;-68
2022/06/14 06:00:35;;;;;;;1102.13;994.70;;;21.30;54.00;;;;;;4972554;28;21136;-68
2022/06/14 06:03:18;;;;;;;1111.90;997.38;;;21.30;53.50;;;;;;4993003;28;20298;-68
2022/06/14 06:05:50;;;;;;;1109.27;998.47;;;21.40;53.40;;;;;;4973391;28;20352;-68
2022/06/14 06:08:18;;;;;;;1110.93;999.27;;;21.40;52.90;;;;;;4987422;28;20298;-68
2022/06/14 06:10:48;;;;;;;1121.57;999.90;;;21.20;52.20;;;;;;4978536;28;20318;-68
2022/06/14 06:13:20;;;;;;;1105.03;995.17;;;21.10;52.70;;;;;;4971737;28;20293;-68
2022/06/14 06:16:14;;;;;;;1133.13;999.90;;;21.10;53.00;;;;;;4975073;28;20300;-68
2022/06/14 06:18:46;;;;;;;1146.67;999.90;;;21.20;52.60;;;;;;4977684;28;20290;-68
2022/06/14 06:21:46;;;;;;;1132.63;999.90;;;21.40;53.10;;;;;;4977434;28;20385;-68
2022/06/14 06:24:43;;;;;;;1167.23;999.90;;;21.40;52.00;;;;;;4971412;28;20369;-68
2022/06/14 06:27:11;;;;;;;1128.03;999.90;;;21.40;52.00;;;;;;4982148;28;20384;-68
2022/06/14 06:29:48;;;;;;;1139.60;999.90;;;21.20;52.70;;;;;;4998925;28;20316;-68
2022/06/14 06:32:15;;;;;;;1159.97;999.90;;;21.40;52.30;;;;;;4988325;28;20293;-68
2022/06/14 06:34:41;;;;;;;1162.30;999.90;;;21.30;51.80;;;;;;4976253;28;20297;-68
2022/06/14 06:37:28;;;;;;;1101.97;998.07;;;21.40;51.70;;;;;;4958441;28;20298;-68
2022/06/14 06:40:17;;;;;;;1101.87;997.37;;;21.30;51.00;;;;;;4991759;28;20594;-68
2022/06/14 06:42:48;;;;;;;1086.50;981.00;;;21.00;51.30;;;;;;5005831;28;20304;-68
2022/06/14 06:45:19;;;;;;;1121.23;999.90;;;21.20;51.80;;;;;;4992206;28;20351;-68
2022/06/14 06:47:55;;;;;;;1110.07;999.90;;;21.10;51.30;;;;;;4992171;28;20297;-68
2022/06/14 06:50:23;;;;;;;1105.30;999.03;;;21.10;51.20;;;;;;4975720;28;20859;-68
2022/06/14 06:53:11;;;;;;;1114.70;999.90;;;21.00;51.30;;;;;;4992310;28;20053;-68
2022/06/14 06:55:45;;;;;;;1095.63;997.93;;;20.90;50.90;;;;;;5007085;28;20297;-68
2022/06/14 06:58:31;;;;;;;1078.05;978.88;;;20.50;50.50;;;;;;4992651;28;20462;-68
2022/06/14 07:00:59;;;;;;;1108.20;997.33;;;20.20;50.90;;;;;;4991397;28;20487;-68
2022/06/14 07:03:29;;;;;;;1096.83;997.33;;;19.80;51.00;;;;;;4991463;28;20335;-68
2022/06/14 07:05:59;;;;;;;1105.47;998.23;;;19.50;53.10;;;;;;4991539;28;20104;-68
2022/06/14 07:08:45;;;;;;;1086.83;989.50;;;19.30;53.80;;;;;;4991766;28;20297;-68
2022/06/14 07:11:17;;;;;;;1120.80;999.90;;;19.30;53.50;;;;;;4991403;28;20767;-68
2022/06/14 07:14:10;;;;;;;1087.67;982.87;;;19.00;54.20;;;;;;4991603;28;20702;-68
2022/06/14 07:16:44;;;;;;;1126.10;999.90;;;18.90;54.30;;;;;;4991361;28;20046;-68
2022/06/14 07:19:17;;;;;;;1082.88;985.40;;;18.70;55.00;;;;;;4991953;28;20045;-68
2022/06/14 07:21:55;;;;;;;1088.10;993.77;;;18.50;55.50;;;;;;4983918;28;20042;-68
2022/06/14 07:24:33;;;;;;;1089.17;989.30;;;18.50;55.60;;;;;;4975549;28;20308;-68
2022/06/14 07:27:12;;;;;;;1105.43;999.90;;;18.60;56.80;;;;;;4976676;28;20482;-68
2022/06/14 07:29:45;;;;;;;1115.17;999.90;;;18.60;57.40;;;;;;4979215;28;20043;-68
2022/06/14 07:32:24;;;;;;;1077.57;979.23;;;18.70;56.50;;;;;;4982969;28;20070;-68
2022/06/14 07:34:50;;;;;;;1089.17;990.97;;;18.90;56.70;;;;;;4999718;28;20548;-68
2022/06/14 07:37:38;;;;;;;1092.77;987.23;;;19.00;54.60;;;;;;4982974;28;20043;-68
2022/06/14 07:40:09;;;;;;;1116.40;999.90;;;18.90;52.90;;;;;;4993413;28;20305;-67
2022/06/14 07:42:42;;;;;;;1065.43;970.63;;;18.70;53.80;;;;;;4997053;28;20089;-68
2022/06/14 07:45:31;;;;;;;1118.10;999.90;;;18.60;54.30;;;;;;4983805;28;20066;-68
2022/06/14 07:48:01;;;;;;;1085.23;984.90;;;18.70;54.30;;;;;;4975929;28;20042;-68
2022/06/14 07:50:47;;;;;;;1134.67;999.90;;;18.80;55.40;;;;;;4980231;28;20047;-68
2022/06/14 07:53:32;;;;;;;1068.17;973.93;;;19.00;54.00;;;;;;4968381;28;20038;-68
2022/06/14 07:56:05;;;;;;;1056.70;962.10;;;19.10;54.10;;;;;;4983985;28;20070;-68
2022/06/14 07:58:45;;;;;;;1061.00;966.03;;;19.00;53.70;;;;;;4982172;28;20491;-68
2022/06/14 08:01:29;;;;;;;1078.60;981.10;;;19.10;54.40;;;;;;4984580;28;20794;-68
2022/06/14 08:04:03;;;;;;;1112.27;999.90;;;19.30;55.10;;;;;;4982967;28;20293;-68
2022/06/14 08:07:04;;;;;;;1057.50;964.13;;;19.30;52.30;;;;;;4981307;28;20570;-68
2022/06/14 08:09:33;;;;;;;1075.83;982.90;;;19.40;54.00;;;;;;4973941;28;20066;-68
2022/06/14 08:12:06;;;;;;;1146.63;999.90;;;19.50;53.30;;;;;;4984077;28;20042;-68
2022/06/14 08:14:52;;;;;;;1091.00;993.93;;;19.60;54.10;;;;;;4983728;28;20594;-68
2022/06/14 08:17:42;;;;;;;1106.67;997.43;;;19.80;52.80;;;;;;4993030;28;20045;-68
2022/06/14 08:20:17;;;;;;;1072.63;975.80;;;19.80;52.90;;;;;;4969099;28;20477;-68
2022/06/14 08:22:46;;;;;;;1079.85;980.42;;;19.70;53.30;;;;;;4977734;28;20384;-68
2022/06/14 08:25:17;;;;;;;1092.60;992.40;;;19.90;53.10;;;;;;4964629;28;20423;-68
2022/06/14 08:27:54;;;;;;;1084.90;987.47;;;20.00;54.00;;;;;;4976223;28;20078;-68
2022/06/14 08:30:35;;;;;;;1087.63;988.83;;;20.20;52.60;;;;;;4981696;28;20038;-68
2022/06/14 08:33:16;;;;;;;1134.60;999.90;;;20.30;53.20;;;;;;4979837;28;20042;-68
2022/06/14 08:35:52;;;;;;;1115.37;999.90;;;20.20;52.60;;;;;;4979193;28;20045;-68
2022/06/14 08:38:22;;;;;;;1088.27;984.40;;;20.00;54.10;;;;;;4976992;28;20042;-68
2022/06/14 08:41:05;;;;;;;1105.67;999.23;;;20.00;54.20;;;;;;4977028;28;20104;-68
2022/06/14 08:43:50;;;;;;;1113.17;999.30;;;20.30;52.90;;;;;;4980905;28;20050;-69
2022/06/14 08:46:28;;;;;;;1097.73;996.53;;;20.60;53.50;;;;;;4982103;28;20050;-68
2022/06/14 08:49:23;;;;;;;1133.53;999.90;;;20.80;52.50;;;;;;4977332;28;20335;-68
2022/06/14 08:52:18;;;;;;;1083.07;985.60;;;20.80;52.30;;;;;;4952381;28;20515;-68
2022/06/14 08:55:11;;;;;;;1116.50;999.90;;;20.70;52.80;;;;;;4981775;28;20038;-68
2022/06/14 08:57:54;;;;;;;1073.53;979.27;;;20.80;51.20;;;;;;4982365;28;20089;-68
2022/06/14 09:00:40;;;;;;;1089.87;994.53;;;20.80;51.20;;;;;;4977124;28;20116;-68
2022/06/14 09:03:30;;;;;;;1120.63;999.90;;;20.50;50.60;;;;;;4979507;28;20442;-68
2022/06/14 09:06:44;;;;;;;1107.60;999.90;;;20.20;50.80;;;;;;4975712;28;20100;-68
2022/06/14 09:09:37;;;;;;;1074.87;978.03;;;19.90;52.00;;;;;;4975968;28;20121;-68
2022/06/14 09:12:20;;;;;;;1121.63;999.90;;;19.90;51.60;;;;;;4982633;28;20050;-68
2022/06/14 09:15:06;;;;;;;1124.73;999.90;;;19.90;52.40;;;;;;4977689;28;20100;-68
2022/06/14 09:17:47;;;;;;;1121.93;999.90;;;19.90;51.70;;;;;;4981655;28;20125;-68
2022/06/14 09:20:35;;;;;;;1063.77;967.93;;;19.90;51.60;;;;;;4999199;28;20049;-68
2022/06/14 09:23:15;;;;;;;1085.73;983.90;;;19.90;51.90;;;;;;4978850;28;20053;-68
2022/06/14 09:26:31;;;;;;;1064.90;971.43;;;20.20;52.20;;;;;;4969652;28;20046;-69
2022/06/14 09:29:14;;;;;;;1095.05;995.75;;;20.30;49.70;;;;;;4964699;28;20046;-69
2022/06/14 09:32:03;;;;;;;1098.87;994.03;;;20.50;51.40;;;;;;4966272;28;20546;-69
2022/06/14 09:34:41;;;;;;;1088.03;986.73;;;20.80;51.10;;;;;;4973806;28;20057;-69
2022/06/14 09:37:13;;;;;;;1077.23;981.93;;;20.90;50.90;;;;;;4967074;28;20041;-69
2022/06/14 09:40:16;;;;;;;1096.13;996.20;;;21.00;50.80;;;;;;4996237;28;20088;-69
2022/06/14 09:43:12;;;;;;;1077.93;982.73;;;21.10;50.70;;;;;;4967955;28;20052;-69
2022/06/14 09:45:49;;;;;;;1071.70;973.07;;;21.00;49.30;;;;;;4976535;28;20042;-68
2022/06/14 09:48:36;;;;;;;1104.50;999.43;;;20.80;50.40;;;;;;4980416;28;20058;-68
2022/06/14 09:51:23;;;;;;;1092.63;993.90;;;20.60;50.70;;;;;;4997319;28;20490;-68
2022/06/14 09:54:27;;;;;;;1050.33;960.03;;;20.40;50.30;;;;;;4977990;28;20047;-68
2022/06/14 09:57:07;;;;;;;1051.37;958.30;;;20.30;49.70;;;;;;4977995;28;20051;-68
2022/06/14 09:59:57;;;;;;;1050.77;960.23;;;20.00;50.50;;;;;;4982233;28;20050;-68
2022/06/14 10:02:47;;;;;;;1055.23;963.53;;;19.80;50.60;;;;;;4982107;28;20061;-68
2022/06/14 10:05:28;;;;;;;1068.30;971.50;;;19.60;50.60;;;;;;4978079;28;20050;-68
2022/06/14 10:08:32;;;;;;;1084.73;987.23;;;19.60;51.40;;;;;;4965319;28;20054;-68
2022/06/14 10:11:04;;;;;;;1041.80;947.10;;;19.40;51.20;;;;;;4975391;28;20108;-68
2022/06/14 10:14:11;;;;;;;1053.87;958.67;;;19.40;51.00;;;;;;4979733;28;20412;-68
2022/06/14 10:16:54;;;;;;;1047.63;956.67;;;19.70;51.90;;;;;;4956800;28;20161;-67
2022/06/14 10:19:53;;;;;;;1100.03;997.10;;;20.20;51.20;;;;;;4964878;28;20038;-67
2022/06/14 10:22:56;;;;;;;1089.17;991.37;;;20.80;51.70;;;;;;4992467;28;20040;-68
2022/06/14 10:28:45;;;;;;;1069.30;973.30;;;20.90;50.10;;;;;;4973758;28;20399;-68
2022/06/14 10:31:20;;;;;;;1058.33;961.87;;;20.60;50.80;;;;;;4975965;28;20130;-68
2022/06/14 10:34:17;;;;;;;1061.07;965.30;;;20.50;51.10;;;;;;4980129;28;20038;-68
2022/06/14 10:36:46;;;;;;;1068.13;971.37;;;20.50;51.20;;;;;;4987528;28;20586;-68
2022/06/14 10:39:52;;;;;;;1056.53;960.47;;;20.50;51.00;;;;;;4990056;28;20515;-68
2022/06/14 10:42:35;;;;;;;1088.20;990.07;;;20.50;50.70;;;;;;4975328;28;20431;-68
2022/06/14 10:45:10;;;;;;;1102.37;992.53;;;20.30;52.00;;;;;;4980215;28;20050;-68
2022/06/14 10:47:43;;;;;;;1093.83;994.67;;;20.30;52.20;;;;;;4977991;28;20125;-68
2022/06/14 10:50:18;;;;;;;1105.87;998.23;;;20.20;52.10;;;;;;4985853;28;20447;-68
2022/06/14 10:53:11;;;;;;;1087.95;987.97;;;20.30;52.10;;;;;;4986062;28;20454;-68
2022/06/14 10:55:47;;;;;;;1101.30;999.90;;;20.40;52.20;;;;;;4981674;28;20096;-68
2022/06/14 10:58:38;;;;;;;1047.30;952.67;;;20.50;51.50;;;;;;4985980;28;20038;-68
2022/06/14 11:01:48;;;;;;;1067.77;971.57;;;20.50;50.20;;;;;;4987537;28;20133;-68
2022/06/14 11:04:51;;;;;;;1060.50;965.20;;;20.60;49.70;;;;;;4932960;28;20086;-68
2022/06/14 11:07:35;;;;;;;1054.60;960.90;;;20.70;49.70;;;;;;4988918;28;20507;-68
2022/06/14 11:10:25;;;;;;;1059.15;964.25;;;20.70;49.90;;;;;;4988669;28;20154;-68
2022/06/14 11:12:56;;;;;;;1084.13;984.07;;;20.90;49.10;;;;;;4989401;28;20416;-68
2022/06/14 11:15:59;;;;;;;1058.87;960.10;;;20.90;50.30;;;;;;4988388;28;20104;-68
2022/06/14 11:18:53;;;;;;;1067.87;971.60;;;21.10;50.10;;;;;;4988690;28;20050;-68
2022/06/14 11:21:40;;;;;;;1089.83;990.00;;;21.30;49.10;;;;;;4989028;28;20049;-68
2022/06/14 11:24:12;;;;;;;1063.20;965.63;;;21.30;49.20;;;;;;4989055;28;20109;-68
2022/06/14 11:26:50;;;;;;;1045.80;948.33;;;21.20;48.80;;;;;;4981264;28;20545;-68
2022/06/14 11:29:42;;;;;;;1092.27;988.03;;;21.10;49.70;;;;;;4989513;28;20038;-68
2022/06/14 11:32:35;;;;;;;1084.10;985.10;;;21.10;51.00;;;;;;4988695;28;20042;-68
2022/06/14 11:35:24;;;;;;;1058.03;958.67;;;21.20;50.10;;;;;;4980037;28;20457;-68
2022/06/14 11:38:12;;;;;;;1056.77;960.93;;;21.20;51.10;;;;;;4972790;28;20058;-68
2022/06/14 11:40:48;;;;;;;1064.00;969.20;;;21.30;49.00;;;;;;4972317;28;20077;-68
2022/06/14 11:43:34;;;;;;;1060.57;964.57;;;21.40;48.80;;;;;;4980190;28;20054;-68
2022/06/14 11:46:12;;;;;;;1078.97;979.60;;;21.60;49.00;;;;;;4987647;28;20056;-68
2022/06/14 11:49:02;;;;;;;1083.50;981.17;;;21.80;49.30;;;;;;4988688;28;20054;-68
2022/06/14 11:51:49;;;;;;;1050.77;950.80;;;21.90;48.50;;;;;;4988956;28;20045;-68
2022/06/14 11:54:21;;;;;;;1096.00;989.93;;;21.80;48.30;;;;;;4987017;28;20507;-68
2022/06/14 11:57:05;;;;;;;1057.30;963.87;;;21.80;47.60;;;;;;4988549;28;20039;-68
2022/06/14 11:59:55;;;;;;;1053.27;958.33;;;21.60;48.40;;;;;;4988537;28;20100;-68
2022/06/14 12:03:02;;;;;;;1047.27;952.40;;;21.70;48.40;;;;;;4994609;28;20511;-66
2022/06/14 12:05:46;;;;;;;1045.83;954.27;;;21.60;48.60;;;;;;4987686;28;20042;-66
2022/06/14 12:08:22;;;;;;;1067.47;968.20;;;21.70;48.30;;;;;;4988328;28;20089;-66
2022/06/14 12:11:00;;;;;;;1061.57;968.57;;;21.70;47.50;;;;;;4988280;28;20042;-67
2022/06/14 12:13:31;;;;;;;1042.93;949.03;;;21.60;47.10;;;;;;4986989;28;20053;-67
2022/06/14 12:16:09;;;;;;;1070.67;971.40;;;21.50;48.60;;;;;;4971080;28;20438;-66
2022/06/14 12:18:38;;;;;;;1061.27;962.40;;;21.60;48.00;;;;;;4987465;28;20436;-66
2022/06/14 12:21:22;;;;;;;1040.83;946.67;;;21.60;48.20;;;;;;4987394;28;20078;-66
2022/06/14 12:23:56;;;;;;;1049.87;956.97;;;21.70;48.00;;;;;;4976297;28;20129;-66
2022/06/14 12:26:35;;;;;;;1023.53;932.53;;;21.90;48.20;;;;;;4978803;28;20057;-66
2022/06/14 12:29:30;;;;;;;1051.53;956.70;;;22.00;48.00;;;;;;4984578;28;20100;-66
2022/06/14 12:32:18;;;;;;;1016.00;925.38;;;22.00;48.70;;;;;;4975312;28;20125;-66
2022/06/14 12:34:51;;;;;;;1055.10;964.87;;;22.10;47.40;;;;;;4982200;28;20046;-67
2022/06/14 12:37:43;;;;;;;1015.47;927.43;;;22.30;47.50;;;;;;4985813;28;20046;-67
2022/06/14 12:40:30;;;;;;;1056.13;962.53;;;22.20;47.10;;;;;;4977435;28;20136;-67
2022/06/14 12:43:11;;;;;;;1074.00;975.47;;;22.10;47.40;;;;;;5002129;28;20050;-67
2022/06/14 12:45:52;;;;;;;1031.50;943.50;;;22.20;47.70;;;;;;4986954;28;20050;-67
2022/06/14 12:48:34;;;;;;;1003.53;918.27;;;22.20;47.00;;;;;;4987583;28;20141;-67
2022/06/14 12:51:09;;;;;;;1062.87;970.77;;;22.20;46.90;;;;;;4987058;28;20046;-67
2022/06/14 12:53:50;;;;;;;;;;;22.60;47.40;;;;;;4988395;28;20109;-67
2022/06/14 12:56:28;;;;;;;1024.77;939.57;;;22.90;46.20;;;;;;4987001;28;19952;-67
2022/06/14 12:59:20;;;;;;;1018.20;930.80;;;22.90;46.60;;;;;;4986836;28;20042;-68
2022/06/14 13:02:22;;;;;;;1038.90;947.70;;;22.80;47.30;;;;;;4976489;28;20193;-67
2022/06/14 13:05:18;;;;;;;1035.60;950.50;;;22.60;46.80;;;;;;4986944;28;20495;-67
2022/06/14 13:07:43;;;;;;;1026.20;938.87;;;22.60;46.60;;;;;;4987579;28;20046;-68
2022/06/14 13:10:17;;;;;;;1035.23;947.77;;;22.80;47.10;;;;;;4986596;28;20137;-68
2022/06/14 13:12:45;;;;;;;1003.00;919.90;;;22.70;45.50;;;;;;4987181;28;20137;-68
2022/06/14 13:15:27;;;;;;;1071.33;978.23;;;22.40;46.60;;;;;;4969560;28;20048;-68